TUI35X EDDL-LGIR
Flight info
| Callsign | TUI35X |
|---|---|
| Flight time | 2h 59m |
| Altitude | 39000 |
| Route | DODEN7Z DODEN Y853 BOMBI DCT DETEV DCT DINKU M867 XERUM DCT BAVAX DCT RADIZ DCT NEMEK DCT VRANA DCT PETAK DCT PINDO UL607 GIVIS T514 XAVIS |
| Aircraft | B738/M-SDE2E3FGHIRWXY/LB1 |
Departure
| Time | 2026-05-07 13:41 |
|---|---|
| Airport | Düsseldorf Airport (EDDL) |
Arrival
| Time | 2026-05-07 16:40 |
|---|---|
| Airport | Heraklion International Nikos Kazantzakis Airport (LGIR) |
| Time | Latitude | Longitude | Altitude | Speed | Heading |
|---|---|---|---|---|---|
| 2026-05-07 13:09 | 51.27994 | 6.76175 | 154 ft | 0 kts | 119° |
| 2026-05-07 13:33 | 51.27995 | 6.76172 | 154 ft | 1 kts | 119° |
| 2026-05-07 13:33 | 51.28003 | 6.76151 | 154 ft | 2 kts | 119° |
| 2026-05-07 13:34 | 51.28010 | 6.76130 | 154 ft | 2 kts | 119° |
| 2026-05-07 13:34 | 51.28028 | 6.76093 | 154 ft | 2 kts | 156° |
| 2026-05-07 13:34 | 51.28037 | 6.76088 | 154 ft | 0 kts | 173° |
| 2026-05-07 13:35 | 51.28044 | 6.76088 | 154 ft | 0 kts | 175° |
| 2026-05-07 13:37 | 51.28035 | 6.76088 | 154 ft | 4 kts | 183° |
| 2026-05-07 13:37 | 51.27983 | 6.76053 | 154 ft | 10 kts | 201° |
| 2026-05-07 13:37 | 51.27920 | 6.76037 | 154 ft | 7 kts | 176° |
| 2026-05-07 13:37 | 51.27859 | 6.76016 | 154 ft | 9 kts | 229° |
| 2026-05-07 13:38 | 51.27845 | 6.75921 | 154 ft | 9 kts | 271° |
| 2026-05-07 13:38 | 51.27855 | 6.75802 | 154 ft | 10 kts | 285° |
| 2026-05-07 13:38 | 51.27863 | 6.75689 | 154 ft | 10 kts | 274° |
| 2026-05-07 13:38 | 51.27897 | 6.75605 | 154 ft | 8 kts | 328° |
| 2026-05-07 13:39 | 51.27909 | 6.75557 | 154 ft | 5 kts | 249° |
| 2026-05-07 13:39 | 51.27871 | 6.75479 | 154 ft | 11 kts | 232° |
| 2026-05-07 13:39 | 51.27845 | 6.75369 | 154 ft | 10 kts | 288° |
| 2026-05-07 13:39 | 51.27899 | 6.75305 | 154 ft | 11 kts | 336° |
| 2026-05-07 13:40 | 51.27972 | 6.75267 | 154 ft | 10 kts | 8° |
| 2026-05-07 13:40 | 51.28032 | 6.75352 | 154 ft | 21 kts | 53° |
| 2026-05-07 13:40 | 51.28273 | 6.75856 | 154 ft | 90 kts | 52° |
| 2026-05-07 13:40 | 51.28774 | 6.76906 | 154 ft | 145 kts | 53° |
| 2026-05-07 13:41 | 51.29451 | 6.78376 | 428 ft | 168 kts | 54° |
| 2026-05-07 13:41 | 51.30087 | 6.79924 | 1085 ft | 169 kts | 56° |
| 2026-05-07 13:41 | 51.30736 | 6.81521 | 1700 ft | 173 kts | 49° |
| 2026-05-07 13:41 | 51.31530 | 6.82941 | 2081 ft | 182 kts | 46° |
| 2026-05-07 13:42 | 51.32417 | 6.84622 | 2229 ft | 208 kts | 50° |
| 2026-05-07 13:42 | 51.33330 | 6.86535 | 2439 ft | 232 kts | 52° |
| 2026-05-07 13:42 | 51.34316 | 6.88739 | 2804 ft | 250 kts | 55° |
| 2026-05-07 13:42 | 51.35072 | 6.91275 | 3382 ft | 259 kts | 75° |
| 2026-05-07 13:43 | 51.35178 | 6.94116 | 4057 ft | 264 kts | 95° |
| 2026-05-07 13:43 | 51.34900 | 6.97019 | 4749 ft | 266 kts | 98° |
| 2026-05-07 13:43 | 51.34587 | 6.99953 | 5407 ft | 270 kts | 98° |
| 2026-05-07 13:43 | 51.34283 | 7.02891 | 6068 ft | 272 kts | 98° |
| 2026-05-07 13:44 | 51.33977 | 7.05893 | 6686 ft | 275 kts | 98° |
| 2026-05-07 13:44 | 51.33666 | 7.08951 | 7319 ft | 278 kts | 98° |
| 2026-05-07 13:44 | 51.33364 | 7.11928 | 7929 ft | 281 kts | 98° |
| 2026-05-07 13:44 | 51.33026 | 7.15084 | 8563 ft | 284 kts | 102° |
| 2026-05-07 13:45 | 51.32327 | 7.18059 | 9167 ft | 289 kts | 120° |
| 2026-05-07 13:45 | 51.31072 | 7.20518 | 9809 ft | 291 kts | 134° |
| 2026-05-07 13:45 | 51.29627 | 7.22785 | 10322 ft | 299 kts | 135° |
| 2026-05-07 13:45 | 51.28082 | 7.25184 | 10549 ft | 316 kts | 135° |
| 2026-05-07 13:46 | 51.26464 | 7.27714 | 10810 ft | 332 kts | 135° |
| 2026-05-07 13:46 | 51.24806 | 7.30320 | 11220 ft | 342 kts | 135° |
| 2026-05-07 13:46 | 51.23098 | 7.33012 | 11739 ft | 341 kts | 135° |
| 2026-05-07 13:46 | 51.21418 | 7.35658 | 12128 ft | 347 kts | 135° |
| 2026-05-07 13:47 | 51.19676 | 7.38400 | 12734 ft | 351 kts | 135° |
| 2026-05-07 13:47 | 51.17950 | 7.41113 | 13372 ft | 355 kts | 135° |
| 2026-05-07 13:47 | 51.16174 | 7.43899 | 14030 ft | 359 kts | 135° |
| 2026-05-07 13:47 | 51.14403 | 7.46646 | 14683 ft | 362 kts | 136° |
| 2026-05-07 13:48 | 51.12575 | 7.49441 | 15341 ft | 365 kts | 136° |
| 2026-05-07 13:48 | 51.10736 | 7.52247 | 15982 ft | 369 kts | 136° |
| 2026-05-07 13:48 | 51.08897 | 7.55050 | 16606 ft | 372 kts | 136° |
| 2026-05-07 13:48 | 51.07030 | 7.57896 | 17216 ft | 375 kts | 136° |
| 2026-05-07 13:49 | 51.05138 | 7.60778 | 17820 ft | 378 kts | 136° |
| 2026-05-07 13:49 | 51.03221 | 7.63694 | 18408 ft | 381 kts | 136° |
| 2026-05-07 13:49 | 51.01309 | 7.66599 | 18996 ft | 384 kts | 137° |
| 2026-05-07 13:49 | 50.99400 | 7.69494 | 19557 ft | 387 kts | 138° |
| 2026-05-07 13:50 | 50.97386 | 7.72324 | 20105 ft | 389 kts | 142° |
| 2026-05-07 13:50 | 50.95171 | 7.74862 | 20657 ft | 391 kts | 147° |
| 2026-05-07 13:50 | 50.92915 | 7.77185 | 21204 ft | 393 kts | 148° |
| 2026-05-07 13:50 | 50.90588 | 7.79526 | 21710 ft | 396 kts | 148° |
| 2026-05-07 13:51 | 50.88755 | 7.81359 | 22119 ft | 398 kts | 148° |
| 2026-05-07 13:51 | 50.86410 | 7.83691 | 22615 ft | 401 kts | 148° |
| 2026-05-07 13:51 | 50.84063 | 7.86015 | 23095 ft | 403 kts | 148° |
| 2026-05-07 13:51 | 50.81670 | 7.88374 | 23577 ft | 405 kts | 148° |
| 2026-05-07 13:52 | 50.79304 | 7.90702 | 24021 ft | 408 kts | 148° |
| 2026-05-07 13:52 | 50.76901 | 7.93063 | 24456 ft | 411 kts | 148° |
| 2026-05-07 13:52 | 50.74444 | 7.95471 | 24890 ft | 413 kts | 148° |
| 2026-05-07 13:52 | 50.72030 | 7.97831 | 25298 ft | 416 kts | 148° |
| 2026-05-07 13:53 | 50.69555 | 8.00248 | 25706 ft | 419 kts | 148° |
| 2026-05-07 13:53 | 50.67090 | 8.02651 | 26103 ft | 421 kts | 148° |
| 2026-05-07 13:53 | 50.64599 | 8.05076 | 26491 ft | 424 kts | 148° |
| 2026-05-07 13:53 | 50.62116 | 8.07504 | 26869 ft | 426 kts | 148° |
| 2026-05-07 13:54 | 50.59680 | 8.10156 | 27232 ft | 429 kts | 142° |
| 2026-05-07 13:54 | 50.57336 | 8.13133 | 27609 ft | 431 kts | 141° |
| 2026-05-07 13:54 | 50.55027 | 8.16153 | 27957 ft | 434 kts | 140° |
| 2026-05-07 13:54 | 50.52748 | 8.19142 | 28302 ft | 436 kts | 140° |
| 2026-05-07 13:55 | 50.50417 | 8.22196 | 28639 ft | 438 kts | 140° |
| 2026-05-07 13:55 | 50.48080 | 8.25254 | 28973 ft | 440 kts | 140° |
| 2026-05-07 13:55 | 50.45695 | 8.28372 | 29259 ft | 444 kts | 140° |
| 2026-05-07 13:55 | 50.43345 | 8.31439 | 29583 ft | 446 kts | 140° |
| 2026-05-07 13:56 | 50.40969 | 8.34531 | 29886 ft | 448 kts | 140° |
| 2026-05-07 13:56 | 50.38573 | 8.37645 | 30167 ft | 451 kts | 140° |
| 2026-05-07 13:56 | 50.36136 | 8.40811 | 30457 ft | 453 kts | 140° |
| 2026-05-07 13:56 | 50.33717 | 8.43951 | 30780 ft | 454 kts | 140° |
| 2026-05-07 13:57 | 50.31301 | 8.47083 | 31139 ft | 454 kts | 140° |
| 2026-05-07 13:57 | 50.28889 | 8.50205 | 31502 ft | 454 kts | 140° |
| 2026-05-07 13:57 | 50.26469 | 8.53334 | 31876 ft | 454 kts | 141° |
| 2026-05-07 13:57 | 50.24054 | 8.56452 | 32226 ft | 454 kts | 141° |
| 2026-05-07 13:58 | 50.21619 | 8.59596 | 32590 ft | 453 kts | 141° |
| 2026-05-07 13:58 | 50.19204 | 8.62704 | 32976 ft | 451 kts | 141° |
| 2026-05-07 13:58 | 50.16788 | 8.65808 | 33348 ft | 450 kts | 142° |
| 2026-05-07 13:58 | 50.14386 | 8.68890 | 33692 ft | 449 kts | 142° |
| 2026-05-07 13:59 | 50.11980 | 8.71972 | 34032 ft | 449 kts | 142° |
| 2026-05-07 13:59 | 50.09582 | 8.75056 | 34358 ft | 448 kts | 141° |
| 2026-05-07 13:59 | 50.07308 | 8.78392 | 34632 ft | 450 kts | 135° |
| 2026-05-07 13:59 | 50.05320 | 8.82092 | 34911 ft | 451 kts | 126° |
| 2026-05-07 14:00 | 50.03730 | 8.86306 | 35199 ft | 452 kts | 118° |
| 2026-05-07 14:00 | 50.02349 | 8.90630 | 35479 ft | 452 kts | 117° |
| 2026-05-07 14:00 | 50.00978 | 8.95051 | 35752 ft | 452 kts | 117° |
| 2026-05-07 14:00 | 49.99616 | 8.99443 | 36029 ft | 451 kts | 117° |
| 2026-05-07 14:01 | 49.98266 | 9.03785 | 36294 ft | 451 kts | 117° |
| 2026-05-07 14:01 | 49.96897 | 9.08177 | 36567 ft | 451 kts | 117° |
| 2026-05-07 14:01 | 49.95538 | 9.12526 | 36806 ft | 451 kts | 117° |
| 2026-05-07 14:01 | 49.94169 | 9.16894 | 36992 ft | 451 kts | 117° |
| 2026-05-07 14:02 | 49.92797 | 9.21259 | 37051 ft | 453 kts | 117° |
| 2026-05-07 14:02 | 49.90045 | 9.29998 | 37048 ft | 450 kts | 117° |
| 2026-05-07 14:03 | 49.87287 | 9.38708 | 37049 ft | 451 kts | 117° |
| 2026-05-07 14:03 | 49.84501 | 9.47442 | 37048 ft | 452 kts | 119° |
| 2026-05-07 14:04 | 49.81137 | 9.55567 | 37046 ft | 449 kts | 132° |
| 2026-05-07 14:04 | 49.77094 | 9.61867 | 37049 ft | 448 kts | 138° |
| 2026-05-07 14:05 | 49.72561 | 9.68445 | 37048 ft | 449 kts | 139° |
| 2026-05-07 14:05 | 49.67986 | 9.75061 | 37048 ft | 451 kts | 140° |
| 2026-05-07 14:06 | 49.63434 | 9.81624 | 37047 ft | 447 kts | 140° |
| 2026-05-07 14:06 | 49.58910 | 9.88129 | 37048 ft | 445 kts | 140° |
| 2026-05-07 14:07 | 49.54390 | 9.94612 | 37048 ft | 445 kts | 140° |
| 2026-05-07 14:07 | 49.49862 | 10.01088 | 37048 ft | 445 kts | 140° |
| 2026-05-07 14:08 | 49.45344 | 10.07533 | 37048 ft | 445 kts | 140° |
| 2026-05-07 14:08 | 49.40806 | 10.13991 | 37048 ft | 445 kts | 140° |
| 2026-05-07 14:09 | 49.36294 | 10.20395 | 37036 ft | 445 kts | 140° |
| 2026-05-07 14:09 | 49.31739 | 10.26841 | 37043 ft | 445 kts | 140° |
| 2026-05-07 14:10 | 49.27224 | 10.33216 | 37036 ft | 445 kts | 140° |
| 2026-05-07 14:10 | 49.22427 | 10.39082 | 37045 ft | 442 kts | 149° |
| 2026-05-07 14:11 | 49.17215 | 10.44030 | 37046 ft | 444 kts | 151° |
| 2026-05-07 14:11 | 49.11925 | 10.48902 | 37045 ft | 443 kts | 152° |
| 2026-05-07 14:12 | 49.06664 | 10.53709 | 37045 ft | 442 kts | 152° |
| 2026-05-07 14:12 | 49.01402 | 10.58491 | 37046 ft | 442 kts | 152° |
| 2026-05-07 14:13 | 48.96128 | 10.63263 | 37046 ft | 442 kts | 152° |
| 2026-05-07 14:13 | 48.91074 | 10.67824 | 37022 ft | 443 kts | 153° |
| 2026-05-07 14:14 | 48.85928 | 10.72455 | 37021 ft | 442 kts | 152° |
| 2026-05-07 14:14 | 48.80841 | 10.77819 | 37020 ft | 445 kts | 142° |
| 2026-05-07 14:15 | 48.76512 | 10.84534 | 37021 ft | 447 kts | 135° |
| 2026-05-07 14:15 | 48.72366 | 10.91476 | 37021 ft | 447 kts | 135° |
| 2026-05-07 14:16 | 48.68186 | 10.98465 | 37021 ft | 449 kts | 135° |
| 2026-05-07 14:16 | 48.64000 | 11.05449 | 37021 ft | 449 kts | 135° |
| 2026-05-07 14:17 | 48.59831 | 11.12387 | 37021 ft | 448 kts | 135° |
| 2026-05-07 14:17 | 48.55650 | 11.19324 | 37021 ft | 448 kts | 135° |
| 2026-05-07 14:18 | 48.51456 | 11.26266 | 37021 ft | 448 kts | 135° |
| 2026-05-07 14:18 | 48.47275 | 11.33170 | 37020 ft | 445 kts | 135° |
| 2026-05-07 14:19 | 48.43117 | 11.40016 | 37021 ft | 444 kts | 135° |
| 2026-05-07 14:19 | 48.38960 | 11.46841 | 37021 ft | 445 kts | 135° |
| 2026-05-07 14:20 | 48.34789 | 11.53671 | 37021 ft | 446 kts | 135° |
| 2026-05-07 14:20 | 48.30591 | 11.60529 | 37021 ft | 446 kts | 135° |
| 2026-05-07 14:21 | 48.26408 | 11.67344 | 37021 ft | 445 kts | 136° |
| 2026-05-07 14:21 | 48.21972 | 11.73710 | 37021 ft | 443 kts | 141° |
| 2026-05-07 14:22 | 48.17418 | 11.79890 | 37021 ft | 443 kts | 142° |
| 2026-05-07 14:22 | 48.12884 | 11.86049 | 37020 ft | 440 kts | 142° |
| 2026-05-07 14:23 | 48.08344 | 11.92224 | 37021 ft | 440 kts | 142° |
| 2026-05-07 14:23 | 48.03839 | 11.98352 | 37021 ft | 441 kts | 142° |
| 2026-05-07 14:24 | 47.99298 | 12.04521 | 37021 ft | 441 kts | 141° |
| 2026-05-07 14:24 | 47.94783 | 12.10646 | 37021 ft | 441 kts | 141° |
| 2026-05-07 14:25 | 47.90261 | 12.16769 | 37021 ft | 441 kts | 141° |
| 2026-05-07 14:25 | 47.85716 | 12.22907 | 37021 ft | 441 kts | 141° |
| 2026-05-07 14:26 | 47.81185 | 12.29025 | 37021 ft | 441 kts | 142° |
| 2026-05-07 14:26 | 47.76659 | 12.35109 | 37020 ft | 439 kts | 142° |
| 2026-05-07 14:27 | 47.72165 | 12.41140 | 37021 ft | 438 kts | 142° |
| 2026-05-07 14:27 | 47.67634 | 12.47197 | 37021 ft | 438 kts | 142° |
| 2026-05-07 14:28 | 47.63116 | 12.53221 | 37021 ft | 438 kts | 142° |
| 2026-05-07 14:28 | 47.58678 | 12.59394 | 37021 ft | 440 kts | 140° |
| 2026-05-07 14:29 | 47.54284 | 12.65647 | 37021 ft | 440 kts | 141° |
| 2026-05-07 14:29 | 47.49882 | 12.71884 | 37021 ft | 439 kts | 141° |
| 2026-05-07 14:30 | 47.45497 | 12.78080 | 37021 ft | 439 kts | 142° |
| 2026-05-07 14:30 | 47.41112 | 12.84251 | 37021 ft | 439 kts | 142° |
| 2026-05-07 14:31 | 47.36694 | 12.90446 | 37021 ft | 439 kts | 142° |
| 2026-05-07 14:31 | 47.32280 | 12.96619 | 37021 ft | 439 kts | 142° |
| 2026-05-07 14:32 | 47.27858 | 13.02788 | 37021 ft | 439 kts | 142° |
| 2026-05-07 14:32 | 47.23426 | 13.08958 | 37021 ft | 439 kts | 142° |
| 2026-05-07 14:33 | 47.19029 | 13.15065 | 37021 ft | 440 kts | 142° |
| 2026-05-07 14:33 | 47.14590 | 13.21213 | 37021 ft | 440 kts | 142° |
| 2026-05-07 14:34 | 47.10157 | 13.27341 | 37022 ft | 438 kts | 142° |
| 2026-05-07 14:34 | 47.05750 | 13.33423 | 37020 ft | 435 kts | 142° |
| 2026-05-07 14:35 | 47.01335 | 13.39489 | 36942 ft | 436 kts | 142° |
| 2026-05-07 14:35 | 46.96935 | 13.45524 | 36913 ft | 435 kts | 142° |
| 2026-05-07 14:36 | 46.92506 | 13.51585 | 36913 ft | 435 kts | 142° |
| 2026-05-07 14:36 | 46.88107 | 13.57590 | 36913 ft | 436 kts | 142° |
| 2026-05-07 14:37 | 46.83684 | 13.63615 | 36913 ft | 436 kts | 142° |
| 2026-05-07 14:37 | 46.77039 | 13.72640 | 36913 ft | 435 kts | 143° |
| 2026-05-07 14:38 | 46.72628 | 13.78617 | 36912 ft | 436 kts | 143° |
| 2026-05-07 14:38 | 46.68158 | 13.84652 | 36913 ft | 441 kts | 143° |
| 2026-05-07 14:39 | 46.63670 | 13.90701 | 36912 ft | 440 kts | 143° |
| 2026-05-07 14:39 | 46.59229 | 13.96675 | 36913 ft | 438 kts | 143° |
| 2026-05-07 14:40 | 46.54742 | 14.02693 | 36913 ft | 439 kts | 143° |
| 2026-05-07 14:40 | 46.50265 | 14.08684 | 36913 ft | 439 kts | 143° |
| 2026-05-07 14:41 | 46.45789 | 14.14660 | 36913 ft | 439 kts | 143° |
| 2026-05-07 14:41 | 46.41308 | 14.20630 | 36942 ft | 439 kts | 143° |
| 2026-05-07 14:42 | 46.36818 | 14.26597 | 36940 ft | 439 kts | 143° |
| 2026-05-07 14:42 | 46.32353 | 14.32524 | 36940 ft | 438 kts | 143° |
| 2026-05-07 14:43 | 46.27869 | 14.38452 | 36940 ft | 438 kts | 143° |
| 2026-05-07 14:43 | 46.23384 | 14.44374 | 36939 ft | 439 kts | 144° |
| 2026-05-07 14:44 | 46.18894 | 14.50287 | 36940 ft | 442 kts | 144° |
| 2026-05-07 14:44 | 46.14339 | 14.56265 | 36940 ft | 441 kts | 144° |
| 2026-05-07 14:45 | 46.09833 | 14.62169 | 36940 ft | 440 kts | 144° |
| 2026-05-07 14:45 | 46.05310 | 14.68082 | 36940 ft | 440 kts | 144° |
| 2026-05-07 14:46 | 46.00805 | 14.73958 | 36940 ft | 439 kts | 144° |
| 2026-05-07 14:46 | 45.96290 | 14.79831 | 36939 ft | 438 kts | 144° |
| 2026-05-07 14:47 | 45.91786 | 14.85681 | 36940 ft | 437 kts | 144° |
| 2026-05-07 14:47 | 45.87281 | 14.91515 | 36968 ft | 438 kts | 144° |
| 2026-05-07 14:48 | 45.82751 | 14.97370 | 36967 ft | 439 kts | 144° |
| 2026-05-07 14:48 | 45.78238 | 15.03190 | 36967 ft | 438 kts | 144° |
| 2026-05-07 14:49 | 45.73723 | 15.09003 | 36966 ft | 439 kts | 145° |
| 2026-05-07 14:49 | 45.69163 | 15.14859 | 36968 ft | 443 kts | 145° |
| 2026-05-07 14:50 | 45.64572 | 15.20735 | 36966 ft | 443 kts | 145° |
| 2026-05-07 14:50 | 45.60021 | 15.26551 | 36966 ft | 442 kts | 145° |
| 2026-05-07 14:51 | 45.55441 | 15.32398 | 36967 ft | 442 kts | 144° |
| 2026-05-07 14:51 | 45.50900 | 15.38221 | 36967 ft | 442 kts | 144° |
| 2026-05-07 14:52 | 45.46320 | 15.44084 | 36967 ft | 443 kts | 144° |
| 2026-05-07 14:52 | 45.41765 | 15.49901 | 36967 ft | 442 kts | 144° |
| 2026-05-07 14:53 | 45.37188 | 15.55731 | 36967 ft | 442 kts | 144° |
| 2026-05-07 14:53 | 45.32618 | 15.61539 | 36995 ft | 442 kts | 144° |
| 2026-05-07 14:54 | 45.28058 | 15.67320 | 36994 ft | 442 kts | 145° |
| 2026-05-07 14:54 | 45.23474 | 15.73125 | 36993 ft | 442 kts | 145° |
| 2026-05-07 14:55 | 45.18877 | 15.78923 | 36994 ft | 447 kts | 145° |
| 2026-05-07 14:55 | 45.14233 | 15.84772 | 36993 ft | 446 kts | 145° |
| 2026-05-07 14:56 | 45.09649 | 15.90534 | 36994 ft | 445 kts | 145° |
| 2026-05-07 14:56 | 45.05009 | 15.96351 | 36994 ft | 445 kts | 145° |
| 2026-05-07 14:57 | 45.00407 | 16.02106 | 36994 ft | 445 kts | 145° |
| 2026-05-07 14:57 | 44.95782 | 16.07878 | 36994 ft | 445 kts | 145° |
| 2026-05-07 14:58 | 44.91154 | 16.13641 | 36994 ft | 445 kts | 145° |
| 2026-05-07 14:58 | 44.86534 | 16.19382 | 37023 ft | 445 kts | 145° |
| 2026-05-07 14:59 | 44.81877 | 16.25154 | 37021 ft | 446 kts | 145° |
| 2026-05-07 14:59 | 44.77245 | 16.30878 | 37021 ft | 444 kts | 145° |
| 2026-05-07 15:00 | 44.72610 | 16.36598 | 37020 ft | 446 kts | 145° |
| 2026-05-07 15:00 | 44.67881 | 16.42404 | 37023 ft | 458 kts | 144° |
| 2026-05-07 15:01 | 44.63087 | 16.48298 | 37019 ft | 459 kts | 144° |
| 2026-05-07 15:01 | 44.58321 | 16.54150 | 37020 ft | 456 kts | 144° |
| 2026-05-07 15:02 | 44.53574 | 16.59957 | 37021 ft | 456 kts | 144° |
| 2026-05-07 15:02 | 44.48792 | 16.65792 | 37021 ft | 457 kts | 145° |
| 2026-05-07 15:03 | 44.44043 | 16.71579 | 37021 ft | 456 kts | 145° |
| 2026-05-07 15:03 | 44.39259 | 16.77392 | 37021 ft | 456 kts | 145° |
| 2026-05-07 15:04 | 44.34496 | 16.83166 | 37021 ft | 457 kts | 145° |
| 2026-05-07 15:04 | 44.29723 | 16.88939 | 37021 ft | 457 kts | 145° |
| 2026-05-07 15:05 | 44.24932 | 16.94720 | 37021 ft | 456 kts | 145° |
| 2026-05-07 15:05 | 44.20100 | 17.00531 | 37022 ft | 460 kts | 145° |
| 2026-05-07 15:06 | 44.15282 | 17.06319 | 37021 ft | 461 kts | 145° |
| 2026-05-07 15:06 | 44.10455 | 17.12107 | 37050 ft | 459 kts | 145° |
| 2026-05-07 15:07 | 44.05624 | 17.17883 | 37026 ft | 460 kts | 145° |
| 2026-05-07 15:07 | 44.00771 | 17.23674 | 37050 ft | 459 kts | 145° |
| 2026-05-07 15:08 | 43.95930 | 17.29427 | 37048 ft | 460 kts | 144° |
| 2026-05-07 15:08 | 43.91105 | 17.35160 | 37077 ft | 460 kts | 144° |
| 2026-05-07 15:09 | 43.86242 | 17.40925 | 37046 ft | 461 kts | 144° |
| 2026-05-07 15:09 | 43.81416 | 17.46634 | 37076 ft | 458 kts | 144° |
| 2026-05-07 15:10 | 43.76552 | 17.52370 | 37075 ft | 461 kts | 144° |
| 2026-05-07 15:10 | 43.71406 | 17.57561 | 37076 ft | 458 kts | 151° |
| 2026-05-07 15:11 | 43.66144 | 17.62419 | 37075 ft | 459 kts | 151° |
| 2026-05-07 15:11 | 43.60822 | 17.67340 | 37075 ft | 458 kts | 152° |
| 2026-05-07 15:12 | 43.55565 | 17.72205 | 37074 ft | 456 kts | 152° |
| 2026-05-07 15:12 | 43.50322 | 17.77050 | 37075 ft | 458 kts | 152° |
| 2026-05-07 15:13 | 43.45030 | 17.81932 | 37075 ft | 459 kts | 152° |
| 2026-05-07 15:13 | 43.39736 | 17.86808 | 37075 ft | 458 kts | 152° |
| 2026-05-07 15:14 | 43.34457 | 17.91660 | 37075 ft | 458 kts | 152° |
| 2026-05-07 15:14 | 43.29205 | 17.96477 | 37074 ft | 456 kts | 152° |
| 2026-05-07 15:15 | 43.23931 | 18.01303 | 37077 ft | 459 kts | 152° |
| 2026-05-07 15:15 | 43.18612 | 18.06155 | 37074 ft | 462 kts | 152° |
| 2026-05-07 15:16 | 43.13277 | 18.11018 | 37075 ft | 464 kts | 152° |
| 2026-05-07 15:16 | 43.07902 | 18.15909 | 37075 ft | 462 kts | 152° |
| 2026-05-07 15:17 | 43.02587 | 18.20735 | 37075 ft | 462 kts | 152° |
| 2026-05-07 15:17 | 42.97259 | 18.25559 | 37075 ft | 462 kts | 152° |
| 2026-05-07 15:18 | 42.91898 | 18.30402 | 37075 ft | 464 kts | 152° |
| 2026-05-07 15:18 | 42.86527 | 18.35246 | 37075 ft | 464 kts | 152° |
| 2026-05-07 15:19 | 42.81155 | 18.40081 | 37075 ft | 464 kts | 152° |
| 2026-05-07 15:19 | 42.75791 | 18.44897 | 37075 ft | 463 kts | 152° |
| 2026-05-07 15:20 | 42.70411 | 18.49723 | 37075 ft | 465 kts | 152° |
| 2026-05-07 15:20 | 42.65050 | 18.54514 | 37075 ft | 466 kts | 152° |
| 2026-05-07 15:21 | 42.59661 | 18.59321 | 37075 ft | 465 kts | 152° |
| 2026-05-07 15:21 | 42.54260 | 18.64129 | 37075 ft | 465 kts | 152° |
| 2026-05-07 15:22 | 42.48881 | 18.68913 | 37075 ft | 464 kts | 153° |
| 2026-05-07 15:22 | 42.43504 | 18.73685 | 37075 ft | 464 kts | 153° |
| 2026-05-07 15:23 | 42.38094 | 18.78467 | 37075 ft | 465 kts | 152° |
| 2026-05-07 15:23 | 42.32716 | 18.83218 | 37075 ft | 465 kts | 152° |
| 2026-05-07 15:24 | 42.27302 | 18.87991 | 37075 ft | 465 kts | 152° |
| 2026-05-07 15:24 | 42.21914 | 18.92734 | 37074 ft | 468 kts | 153° |
| 2026-05-07 15:25 | 42.16413 | 18.97578 | 37076 ft | 481 kts | 154° |
| 2026-05-07 15:25 | 42.10790 | 19.02502 | 37075 ft | 486 kts | 154° |
| 2026-05-07 15:26 | 42.05151 | 19.07422 | 37074 ft | 481 kts | 154° |
| 2026-05-07 15:26 | 41.99560 | 19.12290 | 37075 ft | 481 kts | 154° |
| 2026-05-07 15:27 | 41.93964 | 19.17153 | 37075 ft | 482 kts | 154° |
| 2026-05-07 15:27 | 41.88367 | 19.22009 | 37075 ft | 482 kts | 154° |
| 2026-05-07 15:28 | 41.82715 | 19.26899 | 37075 ft | 481 kts | 154° |
| 2026-05-07 15:28 | 41.77331 | 19.32115 | 37073 ft | 480 kts | 143° |
| 2026-05-07 15:29 | 41.72462 | 19.38164 | 37074 ft | 483 kts | 141° |
| 2026-05-07 15:29 | 41.67570 | 19.44448 | 37076 ft | 496 kts | 141° |
| 2026-05-07 15:30 | 41.62545 | 19.50938 | 37076 ft | 510 kts | 142° |
| 2026-05-07 15:30 | 41.57429 | 19.57536 | 37075 ft | 520 kts | 142° |
| 2026-05-07 15:31 | 41.52235 | 19.64226 | 37074 ft | 516 kts | 142° |
| 2026-05-07 15:31 | 41.47131 | 19.70811 | 37075 ft | 513 kts | 142° |
| 2026-05-07 15:32 | 41.42003 | 19.77410 | 37077 ft | 513 kts | 142° |
| 2026-05-07 15:32 | 41.36915 | 19.83923 | 37074 ft | 503 kts | 141° |
| 2026-05-07 15:33 | 41.31957 | 19.90270 | 37074 ft | 494 kts | 141° |
| 2026-05-07 15:33 | 41.26985 | 19.96627 | 37076 ft | 498 kts | 141° |
| 2026-05-07 15:34 | 41.21989 | 20.02999 | 37074 ft | 504 kts | 141° |
| 2026-05-07 15:34 | 41.16896 | 20.09493 | 37076 ft | 516 kts | 142° |
| 2026-05-07 15:35 | 41.11693 | 20.16102 | 37077 ft | 527 kts | 143° |
| 2026-05-07 15:35 | 41.06376 | 20.22823 | 37130 ft | 528 kts | 143° |
| 2026-05-07 15:36 | 41.01095 | 20.29455 | 37129 ft | 525 kts | 142° |
| 2026-05-07 15:36 | 40.95832 | 20.36069 | 37128 ft | 516 kts | 141° |
| 2026-05-07 15:37 | 40.90684 | 20.42556 | 37130 ft | 512 kts | 141° |
| 2026-05-07 15:37 | 40.85527 | 20.49028 | 37130 ft | 516 kts | 141° |
| 2026-05-07 15:38 | 40.80323 | 20.55543 | 37129 ft | 517 kts | 141° |
| 2026-05-07 15:38 | 40.75145 | 20.62009 | 37129 ft | 516 kts | 141° |
| 2026-05-07 15:39 | 40.69934 | 20.68534 | 37128 ft | 518 kts | 143° |
| 2026-05-07 15:39 | 40.64660 | 20.75107 | 37130 ft | 529 kts | 144° |
| 2026-05-07 15:40 | 40.59290 | 20.81726 | 37128 ft | 532 kts | 142° |
| 2026-05-07 15:40 | 40.53976 | 20.88312 | 37128 ft | 526 kts | 142° |
| 2026-05-07 15:41 | 40.48645 | 20.94896 | 37130 ft | 527 kts | 142° |
| 2026-05-07 15:41 | 40.43212 | 21.01300 | 37158 ft | 527 kts | 145° |
| 2026-05-07 15:42 | 40.37705 | 21.07609 | 37156 ft | 527 kts | 145° |
| 2026-05-07 15:42 | 40.32214 | 21.13902 | 37156 ft | 526 kts | 145° |
| 2026-05-07 15:43 | 40.26717 | 21.20198 | 37156 ft | 526 kts | 145° |
| 2026-05-07 15:43 | 40.21209 | 21.26503 | 37155 ft | 530 kts | 145° |
| 2026-05-07 15:44 | 40.15631 | 21.32851 | 37158 ft | 540 kts | 144° |
| 2026-05-07 15:44 | 40.09975 | 21.39302 | 37155 ft | 538 kts | 144° |
| 2026-05-07 15:45 | 40.04390 | 21.45657 | 37156 ft | 535 kts | 144° |
| 2026-05-07 15:45 | 39.98778 | 21.52024 | 37157 ft | 536 kts | 144° |
| 2026-05-07 15:46 | 39.90374 | 21.61527 | 37156 ft | 537 kts | 144° |
| 2026-05-07 15:47 | 39.84736 | 21.67894 | 37156 ft | 535 kts | 145° |
| 2026-05-07 15:47 | 39.79138 | 21.74214 | 37156 ft | 535 kts | 145° |
| 2026-05-07 15:48 | 39.73518 | 21.80509 | 37150 ft | 535 kts | 144° |
| 2026-05-07 15:48 | 39.67896 | 21.86838 | 37017 ft | 540 kts | 145° |
| 2026-05-07 15:49 | 39.62216 | 21.93187 | 36994 ft | 540 kts | 145° |
| 2026-05-07 15:49 | 39.56536 | 21.99522 | 36994 ft | 540 kts | 145° |
| 2026-05-07 15:50 | 39.50859 | 22.05839 | 36994 ft | 539 kts | 145° |
| 2026-05-07 15:50 | 39.45176 | 22.12147 | 36994 ft | 540 kts | 145° |
| 2026-05-07 15:51 | 39.39487 | 22.18448 | 36994 ft | 540 kts | 145° |
| 2026-05-07 15:51 | 39.33827 | 22.24703 | 36994 ft | 540 kts | 145° |
| 2026-05-07 15:52 | 39.28146 | 22.30963 | 36992 ft | 533 kts | 144° |
| 2026-05-07 15:52 | 39.22553 | 22.37115 | 37018 ft | 531 kts | 144° |
| 2026-05-07 15:53 | 39.16928 | 22.43288 | 37106 ft | 539 kts | 144° |
| 2026-05-07 15:53 | 39.11234 | 22.49531 | 37101 ft | 538 kts | 144° |
| 2026-05-07 15:54 | 39.05557 | 22.55742 | 37102 ft | 535 kts | 144° |
| 2026-05-07 15:54 | 38.99903 | 22.61910 | 37103 ft | 536 kts | 144° |
| 2026-05-07 15:55 | 38.94245 | 22.68075 | 37102 ft | 536 kts | 145° |
| 2026-05-07 15:55 | 38.88579 | 22.74248 | 37102 ft | 535 kts | 145° |
| 2026-05-07 15:56 | 38.82924 | 22.80380 | 37102 ft | 534 kts | 144° |
| 2026-05-07 15:56 | 38.77243 | 22.86527 | 37102 ft | 535 kts | 144° |
| 2026-05-07 15:57 | 38.71563 | 22.92645 | 37102 ft | 539 kts | 144° |
| 2026-05-07 15:57 | 38.65834 | 22.98811 | 37102 ft | 545 kts | 143° |
| 2026-05-07 15:58 | 38.60038 | 23.05050 | 37018 ft | 543 kts | 144° |
| 2026-05-07 15:58 | 38.54298 | 23.11209 | 36994 ft | 539 kts | 144° |
| 2026-05-07 15:59 | 38.48578 | 23.17329 | 36995 ft | 540 kts | 144° |
| 2026-05-07 15:59 | 38.42850 | 23.23443 | 36994 ft | 542 kts | 144° |
| 2026-05-07 16:00 | 38.38021 | 23.28591 | 36993 ft | 539 kts | 144° |
| 2026-05-07 16:00 | 38.31370 | 23.35660 | 36994 ft | 536 kts | 144° |
| 2026-05-07 16:01 | 38.25650 | 23.41724 | 36994 ft | 538 kts | 144° |
| 2026-05-07 16:01 | 38.19927 | 23.47762 | 37081 ft | 539 kts | 143° |
| 2026-05-07 16:02 | 38.14130 | 23.53888 | 37130 ft | 543 kts | 143° |
| 2026-05-07 16:02 | 38.08354 | 23.59980 | 37129 ft | 541 kts | 143° |
| 2026-05-07 16:03 | 38.02597 | 23.66037 | 37128 ft | 540 kts | 144° |
| 2026-05-07 16:03 | 37.96818 | 23.72122 | 37129 ft | 539 kts | 144° |
| 2026-05-07 16:04 | 37.91130 | 23.78259 | 37128 ft | 542 kts | 139° |
| 2026-05-07 16:04 | 37.86006 | 23.85180 | 37130 ft | 542 kts | 133° |
| 2026-05-07 16:05 | 37.81032 | 23.92399 | 37129 ft | 543 kts | 132° |
| 2026-05-07 16:05 | 37.76965 | 23.98389 | 37129 ft | 544 kts | 132° |
| 2026-05-07 16:06 | 37.71239 | 24.06848 | 37129 ft | 544 kts | 131° |
| 2026-05-07 16:06 | 37.67175 | 24.12883 | 37129 ft | 545 kts | 131° |
| 2026-05-07 16:07 | 37.61460 | 24.21363 | 37129 ft | 545 kts | 131° |
| 2026-05-07 16:07 | 37.57207 | 24.27151 | 37129 ft | 543 kts | 137° |
| 2026-05-07 16:07 | 37.53399 | 24.31294 | 37129 ft | 538 kts | 148° |
| 2026-05-07 16:08 | 37.51372 | 24.33062 | 37132 ft | 537 kts | 151° |
| 2026-05-07 16:08 | 37.45112 | 24.38116 | 37156 ft | 536 kts | 152° |
| 2026-05-07 16:09 | 37.37752 | 24.43938 | 37156 ft | 537 kts | 153° |
| 2026-05-07 16:09 | 37.31443 | 24.48895 | 37156 ft | 536 kts | 153° |
| 2026-05-07 16:10 | 37.26209 | 24.52991 | 37156 ft | 536 kts | 153° |
| 2026-05-07 16:10 | 37.19879 | 24.57918 | 37156 ft | 536 kts | 152° |
| 2026-05-07 16:11 | 37.12566 | 24.63619 | 37142 ft | 535 kts | 152° |
| 2026-05-07 16:11 | 37.07278 | 24.67735 | 36792 ft | 536 kts | 153° |
| 2026-05-07 16:11 | 37.03092 | 24.70998 | 36257 ft | 529 kts | 153° |
| 2026-05-07 16:12 | 37.01020 | 24.72609 | 35904 ft | 527 kts | 153° |
| 2026-05-07 16:12 | 36.96919 | 24.75791 | 35125 ft | 524 kts | 153° |
| 2026-05-07 16:12 | 36.94841 | 24.77395 | 34725 ft | 522 kts | 153° |
| 2026-05-07 16:12 | 36.91808 | 24.79733 | 34145 ft | 520 kts | 153° |
| 2026-05-07 16:13 | 36.88725 | 24.82120 | 33556 ft | 517 kts | 153° |
| 2026-05-07 16:13 | 36.84673 | 24.85258 | 32782 ft | 512 kts | 153° |
| 2026-05-07 16:13 | 36.82691 | 24.86792 | 32406 ft | 509 kts | 153° |
| 2026-05-07 16:13 | 36.78702 | 24.89875 | 31652 ft | 503 kts | 153° |
| 2026-05-07 16:14 | 36.76753 | 24.91379 | 31286 ft | 500 kts | 153° |
| 2026-05-07 16:14 | 36.72829 | 24.94407 | 30401 ft | 497 kts | 153° |
| 2026-05-07 16:14 | 36.70873 | 24.95916 | 30055 ft | 493 kts | 153° |
| 2026-05-07 16:14 | 36.67971 | 24.98147 | 29515 ft | 487 kts | 153° |
| 2026-05-07 16:15 | 36.65151 | 25.00308 | 29004 ft | 481 kts | 153° |
| 2026-05-07 16:15 | 36.62320 | 25.02474 | 28486 ft | 476 kts | 153° |
| 2026-05-07 16:15 | 36.59530 | 25.04609 | 27972 ft | 470 kts | 153° |
| 2026-05-07 16:15 | 36.56781 | 25.06710 | 27464 ft | 464 kts | 152° |
| 2026-05-07 16:16 | 36.54058 | 25.08790 | 26955 ft | 458 kts | 152° |
| 2026-05-07 16:16 | 36.51370 | 25.10843 | 26449 ft | 453 kts | 152° |
| 2026-05-07 16:16 | 36.48692 | 25.12885 | 25942 ft | 447 kts | 152° |
| 2026-05-07 16:16 | 36.46090 | 25.14869 | 25441 ft | 442 kts | 152° |
| 2026-05-07 16:17 | 36.43483 | 25.16855 | 24888 ft | 438 kts | 152° |
| 2026-05-07 16:17 | 36.40902 | 25.18816 | 24090 ft | 440 kts | 151° |
| 2026-05-07 16:17 | 36.38308 | 25.20787 | 23535 ft | 434 kts | 151° |
| 2026-05-07 16:17 | 36.35773 | 25.22716 | 22948 ft | 430 kts | 151° |
| 2026-05-07 16:18 | 36.33223 | 25.24658 | 22370 ft | 425 kts | 151° |
| 2026-05-07 16:18 | 36.30745 | 25.26544 | 21795 ft | 421 kts | 151° |
| 2026-05-07 16:18 | 36.28282 | 25.28413 | 21209 ft | 417 kts | 151° |
| 2026-05-07 16:18 | 36.25817 | 25.30280 | 20645 ft | 413 kts | 151° |
| 2026-05-07 16:19 | 36.23370 | 25.32130 | 20081 ft | 408 kts | 151° |
| 2026-05-07 16:19 | 36.20990 | 25.33927 | 19500 ft | 405 kts | 150° |
| 2026-05-07 16:19 | 36.18601 | 25.35736 | 18951 ft | 400 kts | 150° |
| 2026-05-07 16:19 | 36.16244 | 25.37520 | 18400 ft | 396 kts | 150° |
| 2026-05-07 16:20 | 36.13905 | 25.39205 | 17828 ft | 392 kts | 153° |
| 2026-05-07 16:20 | 36.11476 | 25.40646 | 17236 ft | 387 kts | 160° |
| 2026-05-07 16:20 | 36.08963 | 25.41784 | 16658 ft | 383 kts | 163° |
| 2026-05-07 16:20 | 36.06460 | 25.42822 | 16075 ft | 380 kts | 163° |
| 2026-05-07 16:21 | 36.03949 | 25.43846 | 15493 ft | 378 kts | 163° |
| 2026-05-07 16:21 | 36.01486 | 25.44844 | 14924 ft | 375 kts | 163° |
| 2026-05-07 16:21 | 35.99014 | 25.45843 | 14353 ft | 372 kts | 163° |
| 2026-05-07 16:21 | 35.95794 | 25.47141 | 13613 ft | 368 kts | 163° |
| 2026-05-07 16:22 | 35.94167 | 25.47796 | 13242 ft | 366 kts | 163° |
| 2026-05-07 16:22 | 35.91763 | 25.48762 | 12688 ft | 363 kts | 163° |
| 2026-05-07 16:22 | 35.89376 | 25.49721 | 12141 ft | 360 kts | 162° |
| 2026-05-07 16:22 | 35.87010 | 25.50670 | 11622 ft | 356 kts | 162° |
| 2026-05-07 16:23 | 35.84708 | 25.51593 | 11129 ft | 352 kts | 162° |
| 2026-05-07 16:23 | 35.82413 | 25.52514 | 10800 ft | 343 kts | 162° |
| 2026-05-07 16:23 | 35.80177 | 25.53411 | 10549 ft | 332 kts | 162° |
| 2026-05-07 16:23 | 35.77302 | 25.54562 | 10217 ft | 320 kts | 162° |
| 2026-05-07 16:24 | 35.75920 | 25.55116 | 10133 ft | 312 kts | 162° |
| 2026-05-07 16:24 | 35.73899 | 25.55924 | 10128 ft | 300 kts | 162° |
| 2026-05-07 16:24 | 35.71914 | 25.56655 | 10128 ft | 300 kts | 169° |
| 2026-05-07 16:24 | 35.69827 | 25.56745 | 10128 ft | 301 kts | 191° |
| 2026-05-07 16:25 | 35.67919 | 25.55825 | 10133 ft | 298 kts | 216° |
| 2026-05-07 16:25 | 35.66316 | 25.54214 | 10137 ft | 296 kts | 224° |
| 2026-05-07 16:25 | 35.64810 | 25.52522 | 10128 ft | 296 kts | 224° |
| 2026-05-07 16:25 | 35.62808 | 25.50271 | 10119 ft | 287 kts | 224° |
| 2026-05-07 16:26 | 35.61840 | 25.49190 | 10121 ft | 278 kts | 224° |
| 2026-05-07 16:26 | 35.60424 | 25.47610 | 9906 ft | 273 kts | 224° |
| 2026-05-07 16:26 | 35.59087 | 25.45959 | 9598 ft | 270 kts | 237° |
| 2026-05-07 16:26 | 35.58444 | 25.43885 | 9275 ft | 263 kts | 269° |
| 2026-05-07 16:27 | 35.58846 | 25.41759 | 8941 ft | 258 kts | 303° |
| 2026-05-07 16:27 | 35.59954 | 25.40045 | 8673 ft | 254 kts | 311° |
| 2026-05-07 16:27 | 35.61060 | 25.38340 | 8325 ft | 255 kts | 306° |
| 2026-05-07 16:27 | 35.62017 | 25.36542 | 8033 ft | 254 kts | 301° |
| 2026-05-07 16:28 | 35.62864 | 25.34615 | 7731 ft | 253 kts | 296° |
| 2026-05-07 16:28 | 35.63561 | 25.32664 | 7436 ft | 252 kts | 291° |
| 2026-05-07 16:28 | 35.64139 | 25.30626 | 7142 ft | 251 kts | 288° |
| 2026-05-07 16:28 | 35.64646 | 25.28569 | 6844 ft | 251 kts | 285° |
| 2026-05-07 16:29 | 35.65048 | 25.26495 | 6551 ft | 250 kts | 282° |
| 2026-05-07 16:29 | 35.65354 | 25.24412 | 6253 ft | 249 kts | 279° |
| 2026-05-07 16:29 | 35.65571 | 25.22315 | 5975 ft | 247 kts | 275° |
| 2026-05-07 16:29 | 35.65692 | 25.20202 | 5670 ft | 247 kts | 272° |
| 2026-05-07 16:30 | 35.65720 | 25.18087 | 5367 ft | 246 kts | 269° |
| 2026-05-07 16:30 | 35.65655 | 25.15991 | 5062 ft | 246 kts | 265° |
| 2026-05-07 16:30 | 35.65498 | 25.13901 | 4756 ft | 246 kts | 262° |
| 2026-05-07 16:30 | 35.65252 | 25.11841 | 4473 ft | 245 kts | 259° |
| 2026-05-07 16:31 | 35.64913 | 25.09784 | 4185 ft | 243 kts | 256° |
| 2026-05-07 16:31 | 35.64492 | 25.07789 | 3944 ft | 240 kts | 253° |
| 2026-05-07 16:31 | 35.64000 | 25.05867 | 3801 ft | 233 kts | 250° |
| 2026-05-07 16:31 | 35.63444 | 25.04035 | 3660 ft | 227 kts | 247° |
| 2026-05-07 16:32 | 35.62524 | 25.01774 | 3493 ft | 213 kts | 227° |
| 2026-05-07 16:32 | 35.61758 | 25.01066 | 3377 ft | 207 kts | 200° |
| 2026-05-07 16:32 | 35.60388 | 25.01019 | 3247 ft | 194 kts | 162° |
| 2026-05-07 16:32 | 35.59178 | 25.01513 | 3162 ft | 179 kts | 163° |
| 2026-05-07 16:33 | 35.58001 | 25.01884 | 3004 ft | 172 kts | 167° |
| 2026-05-07 16:33 | 35.56831 | 25.02179 | 2998 ft | 171 kts | 168° |
| 2026-05-07 16:33 | 35.55651 | 25.02462 | 2995 ft | 175 kts | 168° |
| 2026-05-07 16:33 | 35.54470 | 25.02747 | 2880 ft | 172 kts | 168° |
| 2026-05-07 16:34 | 35.53329 | 25.03158 | 2459 ft | 170 kts | 150° |
| 2026-05-07 16:34 | 35.52372 | 25.03909 | 2236 ft | 160 kts | 145° |
| 2026-05-07 16:34 | 35.51447 | 25.04657 | 2039 ft | 161 kts | 147° |
| 2026-05-07 16:34 | 35.50506 | 25.05385 | 1884 ft | 159 kts | 147° |
| 2026-05-07 16:35 | 35.49522 | 25.05984 | 1859 ft | 157 kts | 166° |
| 2026-05-07 16:35 | 35.48459 | 25.06192 | 1690 ft | 156 kts | 172° |
| 2026-05-07 16:35 | 35.47367 | 25.06355 | 1737 ft | 161 kts | 172° |
| 2026-05-07 16:35 | 35.45949 | 25.06565 | 1658 ft | 146 kts | 172° |
| 2026-05-07 16:36 | 35.45277 | 25.06665 | 1573 ft | 146 kts | 172° |
| 2026-05-07 16:36 | 35.44283 | 25.06848 | 1443 ft | 146 kts | 168° |
| 2026-05-07 16:36 | 35.43292 | 25.07102 | 1314 ft | 145 kts | 167° |
| 2026-05-07 16:36 | 35.42299 | 25.07362 | 1185 ft | 145 kts | 167° |
| 2026-05-07 16:37 | 35.41313 | 25.07621 | 1077 ft | 144 kts | 167° |
| 2026-05-07 16:37 | 35.40343 | 25.07877 | 1009 ft | 142 kts | 167° |
| 2026-05-07 16:37 | 35.39383 | 25.08130 | 967 ft | 142 kts | 167° |
| 2026-05-07 16:37 | 35.38428 | 25.08429 | 914 ft | 143 kts | 165° |
| 2026-05-07 16:38 | 35.37463 | 25.08719 | 891 ft | 142 kts | 166° |
| 2026-05-07 16:38 | 35.36506 | 25.09021 | 891 ft | 141 kts | 165° |
| 2026-05-07 16:38 | 35.35580 | 25.09363 | 811 ft | 139 kts | 158° |
| 2026-05-07 16:38 | 35.34780 | 25.09994 | 736 ft | 138 kts | 129° |
| 2026-05-07 16:39 | 35.34425 | 25.11075 | 726 ft | 141 kts | 97° |
| 2026-05-07 16:39 | 35.34370 | 25.12272 | 638 ft | 142 kts | 91° |
| 2026-05-07 16:39 | 35.34289 | 25.13464 | 491 ft | 137 kts | 94° |
| 2026-05-07 16:39 | 35.34211 | 25.14627 | 372 ft | 137 kts | 94° |
| 2026-05-07 16:40 | 35.34124 | 25.15811 | 214 ft | 136 kts | 96° |
| 2026-05-07 16:40 | 35.34044 | 25.16981 | 94 ft | 128 kts | 95° |
| 2026-05-07 16:40 | 35.33987 | 25.17814 | 94 ft | 67 kts | 96° |
| 2026-05-07 16:40 | 35.33955 | 25.18273 | 96 ft | 31 kts | 96° |
| 2026-05-07 16:41 | 35.33924 | 25.18415 | 96 ft | 8 kts | 143° |
| 2026-05-07 16:41 | 35.33885 | 25.18423 | 97 ft | 7 kts | 192° |
| 2026-05-07 16:41 | 35.33855 | 25.18391 | 102 ft | 6 kts | 248° |
| 2026-05-07 16:41 | 35.33853 | 25.18316 | 102 ft | 12 kts | 274° |
| 2026-05-07 16:42 | 35.33863 | 25.18181 | 101 ft | 15 kts | 275° |
| 2026-05-07 16:42 | 35.33872 | 25.18063 | 102 ft | 12 kts | 274° |
| 2026-05-07 16:42 | 35.33879 | 25.17962 | 103 ft | 10 kts | 275° |
| 2026-05-07 16:42 | 35.33884 | 25.17883 | 108 ft | 8 kts | 274° |
| 2026-05-07 16:43 | 35.33889 | 25.17818 | 110 ft | 7 kts | 275° |
| 2026-05-07 16:43 | 35.33894 | 25.17745 | 111 ft | 8 kts | 275° |
| 2026-05-07 16:43 | 35.33899 | 25.17674 | 112 ft | 7 kts | 266° |
| 2026-05-07 16:43 | 35.33884 | 25.17639 | 115 ft | 2 kts | 219° |
| 2026-05-07 16:44 | 35.33869 | 25.17630 | 117 ft | 3 kts | 197° |
| 2026-05-07 16:44 | 35.33852 | 25.17627 | 120 ft | 1 kts | 183° |
| 2026-05-07 16:44 | 35.33812 | 25.17625 | 124 ft | 5 kts | 183° |
| 2026-05-07 16:44 | 35.33793 | 25.17618 | 125 ft | 2 kts | 232° |
| 2026-05-07 16:45 | 35.33795 | 25.17575 | 123 ft | 6 kts | 277° |
| 2026-05-07 16:45 | 35.33802 | 25.17547 | 123 ft | 2 kts | 315° |
| 2026-05-07 16:45 | 35.33804 | 25.17545 | 123 ft | 0 kts | 319° |